sensor_id;sensor_type;location;lat;lon;timestamp;P1;durP1;ratioP1;P2;durP2;ratioP2
21611;SDS011;47005;52.292;13.452;2023-03-01T00:01:21;14.97;;;9.90;;
21611;SDS011;47005;52.292;13.452;2023-03-01T00:03:51;16.83;;;10.67;;
21611;SDS011;47005;52.292;13.452;2023-03-01T00:06:18;13.57;;;8.30;;
21611;SDS011;47005;52.292;13.452;2023-03-01T00:08:44;14.07;;;9.53;;
21611;SDS011;47005;52.292;13.452;2023-03-01T00:13:51;18.33;;;9.93;;
21611;SDS011;47005;52.292;13.452;2023-03-01T00:16:19;19.30;;;9.53;;
21611;SDS011;47005;52.292;13.452;2023-03-01T00:18:46;15.33;;;8.50;;
21611;SDS011;47005;52.292;13.452;2023-03-01T00:21:12;14.40;;;8.10;;
21611;SDS011;47005;52.292;13.452;2023-03-01T00:23:38;14.80;;;8.27;;
21611;SDS011;47005;52.292;13.452;2023-03-01T00:26:08;16.57;;;9.57;;
21611;SDS011;47005;52.292;13.452;2023-03-01T00:28:37;17.77;;;9.87;;
21611;SDS011;47005;52.292;13.452;2023-03-01T00:31:06;14.13;;;10.37;;
21611;SDS011;47005;52.292;13.452;2023-03-01T00:33:34;14.83;;;9.50;;
21611;SDS011;47005;52.292;13.452;2023-03-01T00:36:00;16.97;;;9.90;;
21611;SDS011;47005;52.292;13.452;2023-03-01T00:38:29;13.67;;;9.30;;
21611;SDS011;47005;52.292;13.452;2023-03-01T00:40:55;15.17;;;9.30;;
21611;SDS011;47005;52.292;13.452;2023-03-01T00:43:20;19.13;;;8.93;;
21611;SDS011;47005;52.292;13.452;2023-03-01T00:45:46;16.63;;;9.33;;
21611;SDS011;47005;52.292;13.452;2023-03-01T00:48:12;14.57;;;9.10;;
21611;SDS011;47005;52.292;13.452;2023-03-01T00:50:38;14.93;;;9.70;;
21611;SDS011;47005;52.292;13.452;2023-03-01T00:53:04;18.10;;;10.43;;
21611;SDS011;47005;52.292;13.452;2023-03-01T00:55:30;14.67;;;9.67;;
21611;SDS011;47005;52.292;13.452;2023-03-01T00:57:55;17.17;;;8.80;;
21611;SDS011;47005;52.292;13.452;2023-03-01T01:00:21;15.87;;;10.27;;
21611;SDS011;47005;52.292;13.452;2023-03-01T01:02:47;17.83;;;9.63;;
21611;SDS011;47005;52.292;13.452;2023-03-01T01:05:13;17.03;;;9.67;;
21611;SDS011;47005;52.292;13.452;2023-03-01T01:07:39;17.07;;;10.60;;
21611;SDS011;47005;52.292;13.452;2023-03-01T01:10:05;13.90;;;8.30;;
21611;SDS011;47005;52.292;13.452;2023-03-01T01:12:32;15.13;;;9.47;;
21611;SDS011;47005;52.292;13.452;2023-03-01T01:14:58;20.27;;;9.13;;
21611;SDS011;47005;52.292;13.452;2023-03-01T01:17:24;15.17;;;8.63;;
21611;SDS011;47005;52.292;13.452;2023-03-01T01:19:49;18.93;;;11.07;;
21611;SDS011;47005;52.292;13.452;2023-03-01T01:22:15;18.97;;;10.70;;
21611;SDS011;47005;52.292;13.452;2023-03-01T01:24:41;14.80;;;9.60;;
21611;SDS011;47005;52.292;13.452;2023-03-01T01:27:06;16.50;;;10.33;;
21611;SDS011;47005;52.292;13.452;2023-03-01T01:29:32;19.70;;;10.27;;
21611;SDS011;47005;52.292;13.452;2023-03-01T01:31:58;15.77;;;9.33;;
21611;SDS011;47005;52.292;13.452;2023-03-01T01:34:23;16.43;;;9.47;;
21611;SDS011;47005;52.292;13.452;2023-03-01T01:36:51;20.67;;;10.10;;
21611;SDS011;47005;52.292;13.452;2023-03-01T01:39:19;17.10;;;10.00;;
21611;SDS011;47005;52.292;13.452;2023-03-01T01:41:45;24.00;;;11.60;;
21611;SDS011;47005;52.292;13.452;2023-03-01T01:44:16;18.67;;;10.50;;
21611;SDS011;47005;52.292;13.452;2023-03-01T01:49:31;17.43;;;10.83;;
21611;SDS011;47005;52.292;13.452;2023-03-01T01:54:45;15.17;;;9.07;;
21611;SDS011;47005;52.292;13.452;2023-03-01T01:57:30;14.57;;;9.67;;
21611;SDS011;47005;52.292;13.452;2023-03-01T01:59:59;17.33;;;10.43;;
21611;SDS011;47005;52.292;13.452;2023-03-01T02:02:29;17.00;;;11.33;;
21611;SDS011;47005;52.292;13.452;2023-03-01T02:05:00;18.40;;;10.07;;
21611;SDS011;47005;52.292;13.452;2023-03-01T02:07:35;21.47;;;11.50;;
21611;SDS011;47005;52.292;13.452;2023-03-01T02:10:04;15.33;;;9.60;;
21611;SDS011;47005;52.292;13.452;2023-03-01T02:12:30;17.27;;;10.63;;
21611;SDS011;47005;52.292;13.452;2023-03-01T02:14:56;15.30;;;10.57;;
21611;SDS011;47005;52.292;13.452;2023-03-01T02:17:22;17.73;;;10.77;;
21611;SDS011;47005;52.292;13.452;2023-03-01T02:22:27;15.40;;;10.20;;
21611;SDS011;47005;52.292;13.452;2023-03-01T02:30:20;18.90;;;10.57;;
21611;SDS011;47005;52.292;13.452;2023-03-01T02:32:47;14.83;;;10.97;;
21611;SDS011;47005;52.292;13.452;2023-03-01T02:35:14;14.23;;;10.00;;
21611;SDS011;47005;52.292;13.452;2023-03-01T02:37:41;15.33;;;9.47;;
21611;SDS011;47005;52.292;13.452;2023-03-01T02:40:10;15.20;;;9.17;;
21611;SDS011;47005;52.292;13.452;2023-03-01T02:42:45;14.43;;;8.90;;
21611;SDS011;47005;52.292;13.452;2023-03-01T02:45:16;14.13;;;7.93;;
21611;SDS011;47005;52.292;13.452;2023-03-01T02:47:41;18.50;;;10.70;;
21611;SDS011;47005;52.292;13.452;2023-03-01T02:50:12;15.03;;;8.07;;
21611;SDS011;47005;52.292;13.452;2023-03-01T02:53:14;18.57;;;8.77;;
21611;SDS011;47005;52.292;13.452;2023-03-01T02:55:45;15.93;;;8.67;;
21611;SDS011;47005;52.292;13.452;2023-03-01T02:58:10;13.37;;;8.63;;
21611;SDS011;47005;52.292;13.452;2023-03-01T03:00:37;15.53;;;8.80;;
21611;SDS011;47005;52.292;13.452;2023-03-01T03:03:21;15.10;;;9.30;;
21611;SDS011;47005;52.292;13.452;2023-03-01T03:05:47;18.07;;;9.37;;
21611;SDS011;47005;52.292;13.452;2023-03-01T03:08:13;17.77;;;9.67;;
21611;SDS011;47005;52.292;13.452;2023-03-01T03:10:41;17.93;;;10.70;;
21611;SDS011;47005;52.292;13.452;2023-03-01T03:13:13;18.17;;;10.00;;
21611;SDS011;47005;52.292;13.452;2023-03-01T03:15:40;18.97;;;12.00;;
21611;SDS011;47005;52.292;13.452;2023-03-01T03:18:08;23.20;;;13.10;;
21611;SDS011;47005;52.292;13.452;2023-03-01T03:20:36;19.67;;;11.83;;
21611;SDS011;47005;52.292;13.452;2023-03-01T03:23:04;22.77;;;12.63;;
21611;SDS011;47005;52.292;13.452;2023-03-01T03:25:30;20.73;;;10.73;;
21611;SDS011;47005;52.292;13.452;2023-03-01T03:27:56;15.83;;;9.90;;
21611;SDS011;47005;52.292;13.452;2023-03-01T03:30:29;14.50;;;10.00;;
21611;SDS011;47005;52.292;13.452;2023-03-01T03:32:57;15.27;;;10.20;;
21611;SDS011;47005;52.292;13.452;2023-03-01T03:37:50;14.77;;;9.67;;
21611;SDS011;47005;52.292;13.452;2023-03-01T03:40:40;20.57;;;9.60;;
21611;SDS011;47005;52.292;13.452;2023-03-01T03:43:12;15.47;;;9.87;;
21611;SDS011;47005;52.292;13.452;2023-03-01T03:45:39;17.80;;;9.17;;
21611;SDS011;47005;52.292;13.452;2023-03-01T03:48:06;14.20;;;9.87;;
21611;SDS011;47005;52.292;13.452;2023-03-01T03:50:34;19.30;;;9.17;;
21611;SDS011;47005;52.292;13.452;2023-03-01T03:53:00;15.00;;;10.20;;
21611;SDS011;47005;52.292;13.452;2023-03-01T03:55:27;13.77;;;8.93;;
21611;SDS011;47005;52.292;13.452;2023-03-01T03:57:56;16.43;;;11.20;;
21611;SDS011;47005;52.292;13.452;2023-03-01T04:00:25;19.27;;;10.33;;
21611;SDS011;47005;52.292;13.452;2023-03-01T04:02:51;17.60;;;10.57;;
21611;SDS011;47005;52.292;13.452;2023-03-01T04:05:21;18.17;;;11.73;;
21611;SDS011;47005;52.292;13.452;2023-03-01T04:07:47;20.20;;;11.93;;
21611;SDS011;47005;52.292;13.452;2023-03-01T04:10:14;19.33;;;12.87;;
21611;SDS011;47005;52.292;13.452;2023-03-01T04:12:41;15.63;;;11.90;;
21611;SDS011;47005;52.292;13.452;2023-03-01T04:15:10;19.63;;;11.63;;
21611;SDS011;47005;52.292;13.452;2023-03-01T04:17:42;17.37;;;10.23;;
21611;SDS011;47005;52.292;13.452;2023-03-01T04:20:10;19.03;;;11.00;;
21611;SDS011;47005;52.292;13.452;2023-03-01T04:22:38;18.90;;;11.23;;
21611;SDS011;47005;52.292;13.452;2023-03-01T04:25:05;17.17;;;11.17;;
21611;SDS011;47005;52.292;13.452;2023-03-01T04:27:32;15.17;;;10.53;;
21611;SDS011;47005;52.292;13.452;2023-03-01T04:29:59;16.43;;;10.00;;
21611;SDS011;47005;52.292;13.452;2023-03-01T04:32:24;14.63;;;10.57;;
21611;SDS011;47005;52.292;13.452;2023-03-01T04:34:50;17.37;;;10.03;;
21611;SDS011;47005;52.292;13.452;2023-03-01T04:37:16;14.93;;;9.43;;
21611;SDS011;47005;52.292;13.452;2023-03-01T04:39:41;17.83;;;10.80;;
21611;SDS011;47005;52.292;13.452;2023-03-01T04:42:11;19.73;;;11.13;;
21611;SDS011;47005;52.292;13.452;2023-03-01T04:44:37;19.13;;;11.07;;
21611;SDS011;47005;52.292;13.452;2023-03-01T04:47:03;20.87;;;10.80;;
21611;SDS011;47005;52.292;13.452;2023-03-01T04:49:28;21.67;;;10.77;;
21611;SDS011;47005;52.292;13.452;2023-03-01T04:51:54;15.30;;;9.50;;
21611;SDS011;47005;52.292;13.452;2023-03-01T04:54:23;15.70;;;10.17;;
21611;SDS011;47005;52.292;13.452;2023-03-01T04:56:49;13.57;;;9.80;;
21611;SDS011;47005;52.292;13.452;2023-03-01T04:59:14;15.47;;;10.40;;
21611;SDS011;47005;52.292;13.452;2023-03-01T05:01:40;18.23;;;10.47;;
21611;SDS011;47005;52.292;13.452;2023-03-01T05:04:07;17.83;;;11.60;;
21611;SDS011;47005;52.292;13.452;2023-03-01T05:06:37;21.67;;;10.30;;
21611;SDS011;47005;52.292;13.452;2023-03-01T05:09:04;19.90;;;10.00;;
21611;SDS011;47005;52.292;13.452;2023-03-01T05:11:30;22.20;;;11.87;;
21611;SDS011;47005;52.292;13.452;2023-03-01T05:13:58;16.70;;;10.50;;
21611;SDS011;47005;52.292;13.452;2023-03-01T05:16:24;19.30;;;10.33;;
21611;SDS011;47005;52.292;13.452;2023-03-01T05:18:50;16.37;;;9.73;;
21611;SDS011;47005;52.292;13.452;2023-03-01T05:21:15;17.50;;;10.87;;
21611;SDS011;47005;52.292;13.452;2023-03-01T05:23:41;16.60;;;10.80;;
21611;SDS011;47005;52.292;13.452;2023-03-01T05:26:08;18.93;;;10.93;;
21611;SDS011;47005;52.292;13.452;2023-03-01T05:28:34;19.37;;;11.80;;
21611;SDS011;47005;52.292;13.452;2023-03-01T05:31:00;19.77;;;9.90;;
21611;SDS011;47005;52.292;13.452;2023-03-01T05:33:25;17.63;;;10.73;;
21611;SDS011;47005;52.292;13.452;2023-03-01T05:35:52;20.67;;;11.80;;
21611;SDS011;47005;52.292;13.452;2023-03-01T05:38:18;19.33;;;10.90;;
21611;SDS011;47005;52.292;13.452;2023-03-01T05:40:46;20.73;;;11.80;;
21611;SDS011;47005;52.292;13.452;2023-03-01T05:43:14;16.53;;;10.77;;
21611;SDS011;47005;52.292;13.452;2023-03-01T05:45:40;20.83;;;11.50;;
21611;SDS011;47005;52.292;13.452;2023-03-01T05:48:07;19.27;;;12.13;;
21611;SDS011;47005;52.292;13.452;2023-03-01T05:50:38;17.47;;;11.43;;
21611;SDS011;47005;52.292;13.452;2023-03-01T05:53:14;19.40;;;12.83;;
21611;SDS011;47005;52.292;13.452;2023-03-01T05:55:42;16.97;;;10.33;;
21611;SDS011;47005;52.292;13.452;2023-03-01T05:58:10;16.67;;;12.20;;
21611;SDS011;47005;52.292;13.452;2023-03-01T06:00:38;25.37;;;12.33;;
21611;SDS011;47005;52.292;13.452;2023-03-01T06:03:05;21.70;;;11.23;;
21611;SDS011;47005;52.292;13.452;2023-03-01T06:05:30;20.27;;;9.77;;
21611;SDS011;47005;52.292;13.452;2023-03-01T06:08:00;18.57;;;10.67;;
21611;SDS011;47005;52.292;13.452;2023-03-01T06:10:26;16.77;;;10.60;;
21611;SDS011;47005;52.292;13.452;2023-03-01T06:12:52;20.10;;;11.67;;
21611;SDS011;47005;52.292;13.452;2023-03-01T06:15:18;25.90;;;13.20;;
21611;SDS011;47005;52.292;13.452;2023-03-01T06:17:45;27.33;;;13.47;;
21611;SDS011;47005;52.292;13.452;2023-03-01T06:20:13;21.47;;;13.70;;
21611;SDS011;47005;52.292;13.452;2023-03-01T06:22:46;28.00;;;15.17;;
21611;SDS011;47005;52.292;13.452;2023-03-01T06:25:14;26.50;;;13.97;;
21611;SDS011;47005;52.292;13.452;2023-03-01T06:27:42;27.43;;;15.80;;
21611;SDS011;47005;52.292;13.452;2023-03-01T06:30:08;24.63;;;13.10;;
21611;SDS011;47005;52.292;13.452;2023-03-01T06:32:37;22.10;;;12.57;;
21611;SDS011;47005;52.292;13.452;2023-03-01T06:35:05;16.80;;;10.67;;
21611;SDS011;47005;52.292;13.452;2023-03-01T06:37:31;15.93;;;9.50;;
21611;SDS011;47005;52.292;13.452;2023-03-01T06:39:56;17.73;;;9.77;;
21611;SDS011;47005;52.292;13.452;2023-03-01T06:42:22;19.43;;;10.57;;
21611;SDS011;47005;52.292;13.452;2023-03-01T06:44:48;17.97;;;10.70;;
21611;SDS011;47005;52.292;13.452;2023-03-01T06:47:13;19.87;;;10.63;;
21611;SDS011;47005;52.292;13.452;2023-03-01T06:49:39;17.83;;;11.37;;
21611;SDS011;47005;52.292;13.452;2023-03-01T06:52:04;16.03;;;10.70;;
21611;SDS011;47005;52.292;13.452;2023-03-01T06:54:33;22.87;;;10.60;;
21611;SDS011;47005;52.292;13.452;2023-03-01T06:56:59;20.53;;;10.80;;
21611;SDS011;47005;52.292;13.452;2023-03-01T06:59:24;17.40;;;10.90;;
21611;SDS011;47005;52.292;13.452;2023-03-01T07:01:50;18.10;;;11.73;;
21611;SDS011;47005;52.292;13.452;2023-03-01T07:04:15;18.17;;;11.57;;
21611;SDS011;47005;52.292;13.452;2023-03-01T07:06:41;26.27;;;13.23;;
21611;SDS011;47005;52.292;13.452;2023-03-01T07:09:07;17.73;;;13.47;;
21611;SDS011;47005;52.292;13.452;2023-03-01T07:11:32;24.60;;;14.13;;
21611;SDS011;47005;52.292;13.452;2023-03-01T07:13:58;28.33;;;15.17;;
21611;SDS011;47005;52.292;13.452;2023-03-01T07:16:25;21.93;;;14.50;;
21611;SDS011;47005;52.292;13.452;2023-03-01T07:18:50;19.33;;;14.63;;
21611;SDS011;47005;52.292;13.452;2023-03-01T07:21:16;25.70;;;17.67;;
21611;SDS011;47005;52.292;13.452;2023-03-01T07:23:42;33.83;;;19.67;;
21611;SDS011;47005;52.292;13.452;2023-03-01T07:26:07;24.63;;;17.00;;
21611;SDS011;47005;52.292;13.452;2023-03-01T07:28:33;27.60;;;17.47;;
21611;SDS011;47005;52.292;13.452;2023-03-01T07:31:04;28.33;;;17.27;;
21611;SDS011;47005;52.292;13.452;2023-03-01T07:33:30;27.23;;;17.23;;
21611;SDS011;47005;52.292;13.452;2023-03-01T07:35:57;21.53;;;15.17;;
21611;SDS011;47005;52.292;13.452;2023-03-01T07:38:24;22.43;;;15.80;;
21611;SDS011;47005;52.292;13.452;2023-03-01T07:40:49;31.30;;;16.37;;
21611;SDS011;47005;52.292;13.452;2023-03-01T07:43:15;25.67;;;14.27;;
21611;SDS011;47005;52.292;13.452;2023-03-01T07:45:41;19.17;;;12.10;;
21611;SDS011;47005;52.292;13.452;2023-03-01T07:48:06;21.60;;;12.13;;
21611;SDS011;47005;52.292;13.452;2023-03-01T07:50:32;24.80;;;12.93;;
21611;SDS011;47005;52.292;13.452;2023-03-01T07:52:57;22.23;;;13.10;;
21611;SDS011;47005;52.292;13.452;2023-03-01T07:55:23;20.13;;;11.93;;
21611;SDS011;47005;52.292;13.452;2023-03-01T07:57:49;21.73;;;12.50;;
21611;SDS011;47005;52.292;13.452;2023-03-01T08:00:14;19.53;;;12.47;;
21611;SDS011;47005;52.292;13.452;2023-03-01T08:02:40;21.20;;;13.50;;
21611;SDS011;47005;52.292;13.452;2023-03-01T08:05:07;22.43;;;11.97;;
21611;SDS011;47005;52.292;13.452;2023-03-01T08:07:34;16.50;;;11.70;;
21611;SDS011;47005;52.292;13.452;2023-03-01T08:09:59;21.73;;;12.60;;
21611;SDS011;47005;52.292;13.452;2023-03-01T08:12:25;21.40;;;12.67;;
21611;SDS011;47005;52.292;13.452;2023-03-01T08:14:53;19.90;;;12.27;;
21611;SDS011;47005;52.292;13.452;2023-03-01T08:17:18;15.60;;;11.10;;
21611;SDS011;47005;52.292;13.452;2023-03-01T08:19:44;17.23;;;11.57;;
21611;SDS011;47005;52.292;13.452;2023-03-01T08:22:10;19.90;;;11.27;;
21611;SDS011;47005;52.292;13.452;2023-03-01T08:24:36;19.97;;;12.33;;
21611;SDS011;47005;52.292;13.452;2023-03-01T08:27:03;27.80;;;13.77;;
21611;SDS011;47005;52.292;13.452;2023-03-01T08:29:32;20.10;;;12.47;;
21611;SDS011;47005;52.292;13.452;2023-03-01T08:31:58;26.83;;;12.47;;
21611;SDS011;47005;52.292;13.452;2023-03-01T08:34:24;16.40;;;11.13;;
21611;SDS011;47005;52.292;13.452;2023-03-01T08:36:50;20.47;;;11.93;;
21611;SDS011;47005;52.292;13.452;2023-03-01T08:39:17;18.23;;;10.70;;
21611;SDS011;47005;52.292;13.452;2023-03-01T08:41:44;16.17;;;11.10;;
21611;SDS011;47005;52.292;13.452;2023-03-01T08:44:12;18.67;;;11.50;;
21611;SDS011;47005;52.292;13.452;2023-03-01T08:46:40;18.00;;;11.03;;
21611;SDS011;47005;52.292;13.452;2023-03-01T08:49:08;16.73;;;9.77;;
21611;SDS011;47005;52.292;13.452;2023-03-01T08:51:36;19.73;;;10.37;;
21611;SDS011;47005;52.292;13.452;2023-03-01T08:54:05;19.13;;;9.67;;
21611;SDS011;47005;52.292;13.452;2023-03-01T08:56:35;13.40;;;8.33;;
21611;SDS011;47005;52.292;13.452;2023-03-01T08:59:00;15.53;;;8.73;;
21611;SDS011;47005;52.292;13.452;2023-03-01T09:01:26;21.10;;;9.57;;
21611;SDS011;47005;52.292;13.452;2023-03-01T09:03:52;12.63;;;8.80;;
21611;SDS011;47005;52.292;13.452;2023-03-01T09:06:18;15.93;;;9.73;;
21611;SDS011;47005;52.292;13.452;2023-03-01T09:08:45;18.17;;;9.83;;
21611;SDS011;47005;52.292;13.452;2023-03-01T09:11:14;16.07;;;10.43;;
21611;SDS011;47005;52.292;13.452;2023-03-01T09:13:41;16.17;;;10.47;;
21611;SDS011;47005;52.292;13.452;2023-03-01T09:16:08;15.73;;;10.60;;
21611;SDS011;47005;52.292;13.452;2023-03-01T09:18:35;14.57;;;9.17;;
21611;SDS011;47005;52.292;13.452;2023-03-01T09:21:19;14.50;;;9.07;;
21611;SDS011;47005;52.292;13.452;2023-03-01T09:23:47;13.93;;;8.77;;
21611;SDS011;47005;52.292;13.452;2023-03-01T09:26:17;22.50;;;10.00;;
21611;SDS011;47005;52.292;13.452;2023-03-01T09:28:49;17.37;;;9.47;;
21611;SDS011;47005;52.292;13.452;2023-03-01T09:31:17;14.23;;;9.47;;
21611;SDS011;47005;52.292;13.452;2023-03-01T09:33:48;19.47;;;9.93;;
21611;SDS011;47005;52.292;13.452;2023-03-01T09:36:16;15.73;;;9.00;;
21611;SDS011;47005;52.292;13.452;2023-03-01T09:38:43;18.97;;;10.00;;
21611;SDS011;47005;52.292;13.452;2023-03-01T09:41:23;12.33;;;7.60;;
21611;SDS011;47005;52.292;13.452;2023-03-01T09:46:43;14.37;;;8.27;;
21611;SDS011;47005;52.292;13.452;2023-03-01T09:49:31;14.77;;;7.17;;
21611;SDS011;47005;52.292;13.452;2023-03-01T09:52:21;9.70;;;6.77;;
21611;SDS011;47005;52.292;13.452;2023-03-01T09:54:55;8.50;;;5.87;;
21611;SDS011;47005;52.292;13.452;2023-03-01T10:02:49;14.47;;;7.00;;
21611;SDS011;47005;52.292;13.452;2023-03-01T10:10:56;9.70;;;4.57;;
21611;SDS011;47005;52.292;13.452;2023-03-01T10:18:59;9.10;;;5.33;;
21611;SDS011;47005;52.292;13.452;2023-03-01T10:21:27;9.83;;;4.80;;
21611;SDS011;47005;52.292;13.452;2023-03-01T10:23:57;13.93;;;5.37;;
21611;SDS011;47005;52.292;13.452;2023-03-01T10:29:07;9.10;;;4.30;;
21611;SDS011;47005;52.292;13.452;2023-03-01T10:31:46;7.40;;;4.30;;
21611;SDS011;47005;52.292;13.452;2023-03-01T10:36:42;12.17;;;4.57;;
21611;SDS011;47005;52.292;13.452;2023-03-01T10:39:11;8.33;;;4.00;;
21611;SDS011;47005;52.292;13.452;2023-03-01T10:41:53;8.07;;;4.53;;
21611;SDS011;47005;52.292;13.452;2023-03-01T10:49:56;7.43;;;4.23;;
21611;SDS011;47005;52.292;13.452;2023-03-01T10:52:29;7.23;;;3.63;;
21611;SDS011;47005;52.292;13.452;2023-03-01T10:55:02;6.73;;;3.27;;
21611;SDS011;47005;52.292;13.452;2023-03-01T10:57:49;6.70;;;3.67;;
21611;SDS011;47005;52.292;13.452;2023-03-01T11:02:46;6.13;;;3.57;;
21611;SDS011;47005;52.292;13.452;2023-03-01T11:05:26;7.77;;;3.10;;
21611;SDS011;47005;52.292;13.452;2023-03-01T11:07:58;6.67;;;3.20;;
21611;SDS011;47005;52.292;13.452;2023-03-01T11:10:27;7.27;;;3.60;;
21611;SDS011;47005;52.292;13.452;2023-03-01T11:13:13;9.27;;;3.40;;
21611;SDS011;47005;52.292;13.452;2023-03-01T11:15:41;6.70;;;3.73;;
21611;SDS011;47005;52.292;13.452;2023-03-01T11:18:21;8.00;;;3.90;;
21611;SDS011;47005;52.292;13.452;2023-03-01T11:20:48;6.83;;;3.30;;
21611;SDS011;47005;52.292;13.452;2023-03-01T11:23:16;7.80;;;3.97;;
21611;SDS011;47005;52.292;13.452;2023-03-01T11:25:46;6.07;;;4.20;;
21611;SDS011;47005;52.292;13.452;2023-03-01T11:28:18;7.03;;;3.83;;
21611;SDS011;47005;52.292;13.452;2023-03-01T11:30:56;6.83;;;4.07;;
21611;SDS011;47005;52.292;13.452;2023-03-01T11:36:07;5.57;;;3.90;;
21611;SDS011;47005;52.292;13.452;2023-03-01T11:38:54;5.40;;;3.37;;
21611;SDS011;47005;52.292;13.452;2023-03-01T11:41:23;7.63;;;3.97;;
21611;SDS011;47005;52.292;13.452;2023-03-01T11:43:56;7.87;;;3.80;;
21611;SDS011;47005;52.292;13.452;2023-03-01T11:52:00;5.17;;;3.33;;
21611;SDS011;47005;52.292;13.452;2023-03-01T12:07:51;9.57;;;4.20;;
21611;SDS011;47005;52.292;13.452;2023-03-01T12:13:38;9.93;;;6.07;;
21611;SDS011;47005;52.292;13.452;2023-03-01T12:18:57;7.57;;;4.97;;
21611;SDS011;47005;52.292;13.452;2023-03-01T12:29:42;6.40;;;4.50;;
21611;SDS011;47005;52.292;13.452;2023-03-01T12:46:01;8.63;;;5.27;;
21611;SDS011;47005;52.292;13.452;2023-03-01T12:48:46;7.93;;;5.10;;
21611;SDS011;47005;52.292;13.452;2023-03-01T12:51:24;7.37;;;4.43;;
21611;SDS011;47005;52.292;13.452;2023-03-01T12:53:55;6.53;;;4.37;;
21611;SDS011;47005;52.292;13.452;2023-03-01T12:56:27;4.20;;;2.77;;
21611;SDS011;47005;52.292;13.452;2023-03-01T12:59:14;7.40;;;3.77;;
21611;SDS011;47005;52.292;13.452;2023-03-01T13:07:35;9.40;;;3.97;;
21611;SDS011;47005;52.292;13.452;2023-03-01T13:12:52;8.67;;;3.33;;
21611;SDS011;47005;52.292;13.452;2023-03-01T13:17:50;7.50;;;4.07;;
21611;SDS011;47005;52.292;13.452;2023-03-01T13:20:21;5.60;;;3.03;;
21611;SDS011;47005;52.292;13.452;2023-03-01T13:31:54;7.83;;;4.23;;
21611;SDS011;47005;52.292;13.452;2023-03-01T13:33:56;7.27;;;4.10;;
21611;SDS011;47005;52.292;13.452;2023-03-01T13:46:58;6.80;;;3.40;;
21611;SDS011;47005;52.292;13.452;2023-03-01T13:49:31;8.47;;;3.33;;
21611;SDS011;47005;52.292;13.452;2023-03-01T13:57:40;9.47;;;3.67;;
21611;SDS011;47005;52.292;13.452;2023-03-01T14:05:44;5.83;;;3.03;;
21611;SDS011;47005;52.292;13.452;2023-03-01T14:08:36;6.10;;;3.63;;
21611;SDS011;47005;52.292;13.452;2023-03-01T14:19:28;5.93;;;2.83;;
21611;SDS011;47005;52.292;13.452;2023-03-01T14:24:28;6.83;;;3.67;;
21611;SDS011;47005;52.292;13.452;2023-03-01T14:26:57;7.60;;;3.83;;
21611;SDS011;47005;52.292;13.452;2023-03-01T14:34:43;8.53;;;3.07;;
21611;SDS011;47005;52.292;13.452;2023-03-01T14:37:21;5.43;;;2.97;;
21611;SDS011;47005;52.292;13.452;2023-03-01T14:39:53;9.73;;;2.87;;
21611;SDS011;47005;52.292;13.452;2023-03-01T14:42:20;5.80;;;2.80;;
21611;SDS011;47005;52.292;13.452;2023-03-01T14:44:49;6.60;;;3.43;;
21611;SDS011;47005;52.292;13.452;2023-03-01T14:47:22;5.63;;;2.40;;
21611;SDS011;47005;52.292;13.452;2023-03-01T14:49:56;4.23;;;2.40;;
21611;SDS011;47005;52.292;13.452;2023-03-01T14:52:36;3.63;;;2.40;;
21611;SDS011;47005;52.292;13.452;2023-03-01T14:58:08;3.90;;;1.97;;
21611;SDS011;47005;52.292;13.452;2023-03-01T15:00:37;7.32;;;2.88;;
21611;SDS011;47005;52.292;13.452;2023-03-01T15:03:07;9.65;;;2.60;;
21611;SDS011;47005;52.292;13.452;2023-03-01T15:05:39;5.03;;;2.47;;
21611;SDS011;47005;52.292;13.452;2023-03-01T15:08:06;3.40;;;2.05;;
21611;SDS011;47005;52.292;13.452;2023-03-01T15:10:38;5.90;;;2.13;;
21611;SDS011;47005;52.292;13.452;2023-03-01T15:13:11;5.20;;;2.50;;
21611;SDS011;47005;52.292;13.452;2023-03-01T15:15:40;5.82;;;2.10;;
21611;SDS011;47005;52.292;13.452;2023-03-01T15:18:15;4.32;;;2.28;;
21611;SDS011;47005;52.292;13.452;2023-03-01T15:20:42;3.17;;;1.73;;
21611;SDS011;47005;52.292;13.452;2023-03-01T15:23:22;5.10;;;2.70;;
21611;SDS011;47005;52.292;13.452;2023-03-01T15:25:51;5.63;;;2.88;;
21611;SDS011;47005;52.292;13.452;2023-03-01T15:28:25;5.72;;;2.25;;
21611;SDS011;47005;52.292;13.452;2023-03-01T15:30:59;4.70;;;1.85;;
21611;SDS011;47005;52.292;13.452;2023-03-01T15:33:29;3.83;;;2.55;;
21611;SDS011;47005;52.292;13.452;2023-03-01T15:35:58;6.35;;;2.85;;
21611;SDS011;47005;52.292;13.452;2023-03-01T15:40:57;4.40;;;2.08;;
21611;SDS011;47005;52.292;13.452;2023-03-01T15:43:38;3.83;;;2.03;;
21611;SDS011;47005;52.292;13.452;2023-03-01T15:46:11;5.27;;;2.27;;
21611;SDS011;47005;52.292;13.452;2023-03-01T15:48:47;7.47;;;2.33;;
21611;SDS011;47005;52.292;13.452;2023-03-01T15:51:15;5.27;;;2.23;;
21611;SDS011;47005;52.292;13.452;2023-03-01T15:53:42;2.67;;;1.57;;
21611;SDS011;47005;52.292;13.452;2023-03-01T15:56:13;5.00;;;2.40;;
21611;SDS011;47005;52.292;13.452;2023-03-01T15:58:38;3.83;;;1.83;;
21611;SDS011;47005;52.292;13.452;2023-03-01T16:01:08;3.07;;;1.53;;
21611;SDS011;47005;52.292;13.452;2023-03-01T16:03:38;3.87;;;1.83;;
21611;SDS011;47005;52.292;13.452;2023-03-01T16:06:04;4.83;;;2.83;;
21611;SDS011;47005;52.292;13.452;2023-03-01T16:08:29;5.30;;;2.60;;
21611;SDS011;47005;52.292;13.452;2023-03-01T16:10:55;7.97;;;2.47;;
21611;SDS011;47005;52.292;13.452;2023-03-01T16:13:21;4.77;;;2.63;;
21611;SDS011;47005;52.292;13.452;2023-03-01T16:15:46;4.10;;;2.30;;
21611;SDS011;47005;52.292;13.452;2023-03-01T16:18:12;3.67;;;2.47;;
21611;SDS011;47005;52.292;13.452;2023-03-01T16:20:39;4.43;;;2.83;;
21611;SDS011;47005;52.292;13.452;2023-03-01T16:23:06;4.57;;;2.23;;
21611;SDS011;47005;52.292;13.452;2023-03-01T16:25:33;4.67;;;2.10;;
21611;SDS011;47005;52.292;13.452;2023-03-01T16:28:00;3.20;;;1.90;;
21611;SDS011;47005;52.292;13.452;2023-03-01T16:30:29;4.13;;;2.60;;
21611;SDS011;47005;52.292;13.452;2023-03-01T16:32:55;4.77;;;2.47;;
21611;SDS011;47005;52.292;13.452;2023-03-01T16:35:21;4.40;;;2.27;;
21611;SDS011;47005;52.292;13.452;2023-03-01T16:37:48;5.47;;;2.80;;
21611;SDS011;47005;52.292;13.452;2023-03-01T16:42:42;5.10;;;2.87;;
21611;SDS011;47005;52.292;13.452;2023-03-01T16:45:09;4.47;;;2.13;;
21611;SDS011;47005;52.292;13.452;2023-03-01T16:47:35;6.37;;;1.93;;
21611;SDS011;47005;52.292;13.452;2023-03-01T16:50:00;8.73;;;2.43;;
21611;SDS011;47005;52.292;13.452;2023-03-01T16:52:26;3.97;;;1.87;;
21611;SDS011;47005;52.292;13.452;2023-03-01T16:54:52;3.83;;;2.13;;
21611;SDS011;47005;52.292;13.452;2023-03-01T16:57:18;7.50;;;2.40;;
21611;SDS011;47005;52.292;13.452;2023-03-01T16:59:43;7.13;;;1.90;;
21611;SDS011;47005;52.292;13.452;2023-03-01T17:02:10;4.93;;;2.87;;
21611;SDS011;47005;52.292;13.452;2023-03-01T17:04:43;6.47;;;1.93;;
21611;SDS011;47005;52.292;13.452;2023-03-01T17:07:09;7.20;;;2.63;;
21611;SDS011;47005;52.292;13.452;2023-03-01T17:09:35;4.23;;;1.90;;
21611;SDS011;47005;52.292;13.452;2023-03-01T17:12:02;5.30;;;2.27;;
21611;SDS011;47005;52.292;13.452;2023-03-01T17:14:29;4.30;;;2.40;;
21611;SDS011;47005;52.292;13.452;2023-03-01T17:16:55;4.70;;;2.40;;